Time;durP1;ratioP1;P1;durP2;ratioP2;P2;SDS_P1;SDS_P2;PMS_P1;PMS_P2;Temp;Humidity;BMP_temperature;BMP_pressure;BME280_temperature;BME280_humidity;BME280_pressure;Samples;Min_cycle;Max_cycle;Signal;HPM_P1;HPM_P2
2022/12/05 07:48:42;;;;;;;;;;;;;;;;;;12898923;22;1264368;-82
2022/12/05 07:53:44;;;;;;;9.77;8.07;;;;;;;;;;13084570;22;19945;-82
2022/12/05 07:58:46;;;;;;;9.50;7.80;;;;;;;;;;13085953;22;20037;-82
2022/12/05 08:03:48;;;;;;;10.05;8.15;;;;;;;;;;13083307;22;20007;-81
2022/12/05 08:08:50;;;;;;;11.57;9.52;;;;;;;;;;13079393;22;20033;-81
2022/12/05 08:13:51;;;;;;;15.50;11.80;;;;;;;;;;13074833;22;20014;-79
2022/12/05 08:18:59;;;;;;;11.40;9.70;;;;;;;;;;13082538;22;20007;-80
2022/12/05 08:24:01;;;;;;;11.85;9.45;;;;;;;;;;13068805;22;20424;-81
2022/12/05 08:29:02;;;;;;;;;;;;;;;;;;13071237;22;20003;-80
2022/12/05 08:34:03;;;;;;;;;;;;;;;;;;13078819;22;20012;-78
2022/12/05 08:39:05;;;;;;;10.05;8.48;;;;;;;;;;13071388;22;19899;-80
2022/12/05 08:44:07;;;;;;;12.57;10.20;;;;;;;;;;13066355;22;20011;-80
2022/12/05 08:49:10;;;;;;;11.07;8.40;;;;;;;;;;13083798;22;20025;-82
2022/12/05 08:54:11;;;;;;;10.38;8.00;;;;;;;;;;13136823;22;20002;-81
2022/12/05 08:59:12;;;;;;;;;;;;;;;;;;13139147;22;20006;-80
2022/12/05 09:04:13;;;;;;;9.45;7.43;;;;;;;;;;13106526;22;20286;-80
2022/12/05 09:09:14;;;;;;;;;;;;;;;;;;13105464;22;20112;-81
2022/12/05 09:14:15;;;;;;;9.13;7.20;;;;;;;;;;13113216;22;19941;-81
2022/12/05 09:19:17;;;;;;;9.20;7.30;;;;;;;;;;13109510;22;20097;-81
2022/12/05 09:24:19;;;;;;;9.35;6.90;;;;;;;;;;13115654;22;20028;-81
2022/12/05 09:29:20;;;;;;;8.70;6.95;;;;;;;;;;13112384;22;19994;-81
2022/12/05 09:34:23;;;;;;;;;;;;;;;;;;13111477;22;20009;-81
2022/12/05 09:39:24;;;;;;;8.10;7.00;;;;;;;;;;13114983;22;19898;-81
2022/12/05 09:44:25;;;;;;;;;;;;;;;;;;13112198;22;20006;-81
2022/12/05 09:49:27;;;;;;;8.05;6.20;;;;;;;;;;13114343;22;19906;-81
2022/12/05 09:54:28;;;;;;;7.00;6.05;;;;;;;;;;13116019;22;20003;-82
2022/12/05 09:59:29;;;;;;;9.90;7.78;;;;;;;;;;13147690;22;20002;-81
2022/12/05 10:04:30;;;;;;;;;;;;;;;;;;13146685;22;20052;-79
2022/12/05 10:09:37;;;;;;;7.20;5.88;;;;;;;;;;13118508;22;19898;-80
2022/12/05 10:14:57;;;;;;;15.45;8.90;;;;;;;;;;13146634;22;19995;-79
2022/12/05 10:19:59;;;;;;;30.23;15.85;;;;;;;;;;13121358;22;20017;-80
2022/12/05 10:25:02;;;;;;;10.10;7.80;;;;;;;;;;13115234;22;20014;-78
2022/12/05 10:30:14;;;;;;;9.93;8.10;;;;;;;;;;13119482;22;20018;-79
2022/12/05 10:35:17;;;;;;;8.85;7.07;;;;;;;;;;13122246;22;20007;-81
2022/12/05 10:40:18;;;;;;;11.70;7.78;;;;;;;;;;13150782;22;19995;-80
2022/12/05 10:45:19;;;;;;;;;;;;;;;;;;13121727;22;20010;-80
2022/12/05 10:50:31;;;;;;;9.88;7.20;;;;;;;;;;13122481;22;19910;-80
2022/12/05 10:55:39;;;;;;;11.25;7.60;;;;;;;;;;13153061;22;20003;-80
2022/12/05 11:00:45;;;;;;;12.13;9.60;;;;;;;;;;13125393;22;20089;-80
2022/12/05 11:05:49;;;;;;;11.23;9.02;;;;;;;;;;13126204;22;20002;-80
2022/12/05 11:10:58;;;;;;;13.13;10.55;;;;;;;;;;13162793;22;20041;-79
2022/12/05 11:15:59;;;;;;;12.07;9.55;;;;;;;;;;13135305;22;20098;-80
2022/12/05 11:21:13;;;;;;;13.43;9.40;;;;;;;;;;13127163;22;20003;-79
2022/12/05 11:26:34;;;;;;;12.68;9.38;;;;;;;;;;13127643;22;20003;-80
2022/12/05 11:31:35;;;;;;;9.82;7.50;;;;;;;;;;13116723;22;20028;-81
2022/12/05 11:36:39;;;;;;;9.75;7.30;;;;;;;;;;13100778;22;20033;-82
2022/12/05 11:41:46;;;;;;;10.32;8.50;;;;;;;;;;13100344;22;20022;-82
2022/12/05 11:46:47;;;;;;;12.88;8.77;;;;;;;;;;13103606;22;20013;-81
2022/12/05 11:52:02;;;;;;;10.07;8.07;;;;;;;;;;13151280;22;20019;-82
2022/12/05 11:57:21;;;;;;;9.95;7.85;;;;;;;;;;13106141;22;19998;-85
2022/12/05 12:02:34;;;;;;;9.68;7.72;;;;;;;;;;13103002;22;20014;-81
2022/12/05 12:07:39;;;;;;;8.90;7.35;;;;;;;;;;13106903;22;20007;-82
2022/12/05 12:12:43;;;;;;;10.30;7.68;;;;;;;;;;13108511;22;20007;-82
2022/12/05 12:17:53;;;;;;;8.10;6.85;;;;;;;;;;13108555;22;19995;-82
2022/12/05 12:23:08;;;;;;;7.70;6.80;;;;;;;;;;13130489;22;20003;-81
2022/12/05 12:28:28;;;;;;;8.15;6.43;;;;;;;;;;13102192;22;20009;-83
2022/12/05 12:33:32;;;;;;;9.75;6.38;;;;;;;;;;13101902;22;20002;-82
2022/12/05 12:38:36;;;;;;;7.05;6.05;;;;;;;;;;13129944;22;20056;-81
2022/12/05 12:43:40;;;;;;;8.10;6.30;;;;;;;;;;13103095;22;20029;-82
2022/12/05 12:48:51;;;;;;;7.28;6.35;;;;;;;;;;13105222;22;20058;-81
2022/12/05 12:54:00;;;;;;;6.43;5.65;;;;;;;;;;13102921;22;20419;-81
2022/12/05 12:59:04;;;;;;;6.95;6.25;;;;;;;;;;13100731;22;20010;-81
2022/12/05 13:04:11;;;;;;;7.50;5.95;;;;;;;;;;13103663;22;20011;-83
2022/12/05 13:09:12;;;;;;;6.72;4.90;;;;;;;;;;13111306;22;20017;-81
2022/12/05 13:14:14;;;;;;;;;;;;;;;;;;13110688;22;20029;-82
2022/12/05 13:19:36;;;;;;;6.38;5.40;;;;;;;;;;13101013;22;19929;-81
2022/12/05 13:24:38;;;;;;;9.10;7.30;;;;;;;;;;13104420;22;20064;-82
2022/12/05 13:29:51;;;;;;;6.90;5.40;;;;;;;;;;13106601;22;20009;-82
2022/12/05 13:34:52;;;;;;;7.72;5.55;;;;;;;;;;13105073;22;20006;-82
2022/12/05 13:45:18;;;;;;;5.68;5.00;;;;;;;;;;13133071;22;19902;-83
2022/12/05 13:56:14;;;;;;;7.10;5.80;;;;;;;;;;13030957;22;20011;-83
2022/12/05 14:01:54;;;;;;;5.15;4.65;;;;;;;;;;13031278;22;20033;-85
2022/12/05 14:06:57;;;;;;;5.75;5.10;;;;;;;;;;13008900;22;20008;-85
2022/12/05 14:12:22;;;;;;;7.38;5.38;;;;;;;;;;13010688;22;20030;-84
2022/12/05 14:18:16;;;;;;;6.32;5.53;;;;;;;;;;13008267;22;20034;-84
2022/12/05 14:23:36;;;;;;;5.72;5.13;;;;;;;;;;13002884;22;20034;-85
2022/12/05 14:34:58;;;;;;;5.88;5.28;;;;;;;;;;13036451;22;20003;-84
2022/12/05 14:40:52;;;;;;;7.00;5.28;;;;;;;;;;13015169;22;20027;-85
2022/12/05 14:51:56;;;;;;;5.82;5.22;;;;;;;;;;13032888;22;20019;-84
2022/12/05 14:57:26;;;;;;;;;;;;;;;;;;13024069;22;20008;-85
2022/12/05 15:02:56;;;;;;;5.95;5.13;;;;;;;;;;13000901;22;19973;-84
2022/12/05 15:08:12;;;;;;;6.20;5.10;;;;;;;;;;12899410;23;20031;-84
2022/12/05 15:30:13;;;;;;;6.57;5.15;;;;;;;;;;12847928;23;20056;-85
2022/12/05 15:35:16;;;;;;;8.93;6.93;;;;;;;;;;12810304;23;20540;-85
2022/12/05 15:40:32;;;;;;;6.38;5.03;;;;;;;;;;12807252;23;20001;-85
2022/12/05 15:45:56;;;;;;;5.43;4.90;;;;;;;;;;12811970;23;20025;-85
2022/12/05 15:57:00;;;;;;;6.32;5.40;;;;;;;;;;13019078;22;20004;-84
2022/12/05 16:02:32;;;;;;;6.30;5.18;;;;;;;;;;12992319;22;20019;-83
2022/12/05 16:07:38;;;;;;;6.25;5.50;;;;;;;;;;12982334;22;20056;-85
2022/12/05 16:12:44;;;;;;;7.95;7.00;;;;;;;;;;12996065;22;20008;-86
2022/12/05 16:17:46;;;;;;;6.43;5.78;;;;;;;;;;12995447;22;20015;-85
2022/12/05 16:22:47;;;;;;;8.40;7.25;;;;;;;;;;12991988;22;20007;-85
2022/12/05 16:27:59;;;;;;;9.80;8.02;;;;;;;;;;13022599;22;20008;-84
2022/12/05 16:33:02;;;;;;;7.25;6.53;;;;;;;;;;12993758;22;20026;-85
2022/12/05 16:38:14;;;;;;;7.20;5.68;;;;;;;;;;12993246;22;20087;-85
2022/12/05 16:43:31;;;;;;;8.05;7.15;;;;;;;;;;12982596;22;20451;-84
2022/12/05 16:48:32;;;;;;;8.75;7.13;;;;;;;;;;12981513;22;20023;-85
2022/12/05 16:53:33;;;;;;;;;;;;;;;;;;12981401;22;20019;-85
2022/12/05 16:58:39;;;;;;;7.20;6.50;;;;;;;;;;12981483;22;19947;-84
2022/12/05 17:03:40;;;;;;;8.38;6.90;;;;;;;;;;12980396;22;20007;-85
2022/12/05 17:08:44;;;;;;;6.90;6.20;;;;;;;;;;12977577;22;20008;-84
2022/12/05 17:13:47;;;;;;;6.97;5.78;;;;;;;;;;12980998;22;20003;-85
2022/12/05 17:18:48;;;;;;;7.70;6.53;;;;;;;;;;12977764;22;20000;-82
2022/12/05 17:23:49;;;;;;;10.70;9.18;;;;;;;;;;12954540;22;19998;-84
2022/12/05 19:51:10;;;;;;;8.02;7.22;;;;;;;;;;12918693;22;20008;-81
2022/12/05 19:56:20;;;;;;;8.88;7.88;;;;;;;;;;13046437;22;20090;-82
2022/12/05 20:07:32;;;;;;;9.85;7.95;;;;;;;;;;13047515;22;20011;-81
2022/12/05 20:12:33;;;;;;;9.80;8.80;;;;;;;;;;13021220;22;20002;-79
2022/12/05 20:17:40;;;;;;;8.30;7.47;;;;;;;;;;12998472;22;19996;-81
